sensor_id;sensor_type;location;lat;lon;timestamp;P1;durP1;ratioP1;P2;durP2;ratioP2
27758;SDS011;15148;48.972;12.794;2024-03-02T00:01:02;32.40;;;22.35;;
27758;SDS011;15148;48.972;12.794;2024-03-02T00:06:04;40.92;;;25.10;;
27758;SDS011;15148;48.972;12.794;2024-03-02T00:11:07;49.42;;;29.63;;
27758;SDS011;15148;48.972;12.794;2024-03-02T00:16:09;64.88;;;34.90;;
27758;SDS011;15148;48.972;12.794;2024-03-02T00:21:12;59.65;;;35.22;;
27758;SDS011;15148;48.972;12.794;2024-03-02T00:26:16;68.65;;;36.70;;
27758;SDS011;15148;48.972;12.794;2024-03-02T00:31:19;71.00;;;38.85;;
27758;SDS011;15148;48.972;12.794;2024-03-02T00:36:25;70.38;;;38.53;;
27758;SDS011;15148;48.972;12.794;2024-03-02T00:41:31;59.03;;;35.40;;
27758;SDS011;15148;48.972;12.794;2024-03-02T00:46:34;54.90;;;31.98;;
27758;SDS011;15148;48.972;12.794;2024-03-02T00:51:40;76.83;;;43.60;;
27758;SDS011;15148;48.972;12.794;2024-03-02T00:56:43;58.70;;;33.42;;
27758;SDS011;15148;48.972;12.794;2024-03-02T01:01:45;56.00;;;33.50;;
27758;SDS011;15148;48.972;12.794;2024-03-02T01:06:47;57.90;;;33.22;;
27758;SDS011;15148;48.972;12.794;2024-03-02T01:11:49;60.47;;;34.63;;
27758;SDS011;15148;48.972;12.794;2024-03-02T01:16:51;64.18;;;35.35;;
27758;SDS011;15148;48.972;12.794;2024-03-02T01:21:53;54.70;;;32.67;;
27758;SDS011;15148;48.972;12.794;2024-03-02T01:26:55;59.40;;;33.83;;
27758;SDS011;15148;48.972;12.794;2024-03-02T01:31:58;56.97;;;32.72;;
27758;SDS011;15148;48.972;12.794;2024-03-02T01:36:59;59.40;;;33.08;;
27758;SDS011;15148;48.972;12.794;2024-03-02T01:42:02;54.42;;;31.67;;
27758;SDS011;15148;48.972;12.794;2024-03-02T01:47:04;54.63;;;31.50;;
27758;SDS011;15148;48.972;12.794;2024-03-02T01:52:06;42.65;;;27.27;;
27758;SDS011;15148;48.972;12.794;2024-03-02T01:57:08;49.47;;;30.73;;
27758;SDS011;15148;48.972;12.794;2024-03-02T02:02:10;41.20;;;27.40;;
27758;SDS011;15148;48.972;12.794;2024-03-02T02:07:12;48.08;;;30.67;;
27758;SDS011;15148;48.972;12.794;2024-03-02T02:12:16;48.95;;;32.00;;
27758;SDS011;15148;48.972;12.794;2024-03-02T02:17:18;40.13;;;25.98;;
27758;SDS011;15148;48.972;12.794;2024-03-02T02:22:20;42.38;;;28.02;;
27758;SDS011;15148;48.972;12.794;2024-03-02T02:27:22;44.70;;;29.42;;
27758;SDS011;15148;48.972;12.794;2024-03-02T02:32:24;50.20;;;30.45;;
27758;SDS011;15148;48.972;12.794;2024-03-02T02:37:26;46.22;;;29.77;;
27758;SDS011;15148;48.972;12.794;2024-03-02T02:42:28;50.20;;;31.55;;
27758;SDS011;15148;48.972;12.794;2024-03-02T02:47:30;54.83;;;32.15;;
27758;SDS011;15148;48.972;12.794;2024-03-02T02:52:32;44.80;;;29.27;;
27758;SDS011;15148;48.972;12.794;2024-03-02T02:57:41;43.75;;;27.98;;
27758;SDS011;15148;48.972;12.794;2024-03-02T03:02:48;45.38;;;28.98;;
27758;SDS011;15148;48.972;12.794;2024-03-02T03:07:52;49.13;;;30.20;;
27758;SDS011;15148;48.972;12.794;2024-03-02T03:12:54;44.60;;;28.70;;
27758;SDS011;15148;48.972;12.794;2024-03-02T03:17:57;46.80;;;29.73;;
27758;SDS011;15148;48.972;12.794;2024-03-02T03:23:00;41.42;;;27.20;;
27758;SDS011;15148;48.972;12.794;2024-03-02T03:28:02;45.20;;;28.20;;
27758;SDS011;15148;48.972;12.794;2024-03-02T03:33:04;42.70;;;28.10;;
27758;SDS011;15148;48.972;12.794;2024-03-02T03:38:10;47.67;;;29.35;;
27758;SDS011;15148;48.972;12.794;2024-03-02T03:43:12;51.45;;;29.77;;
27758;SDS011;15148;48.972;12.794;2024-03-02T03:48:14;46.05;;;28.77;;
27758;SDS011;15148;48.972;12.794;2024-03-02T03:53:16;39.13;;;25.05;;
27758;SDS011;15148;48.972;12.794;2024-03-02T03:58:18;41.28;;;26.15;;
27758;SDS011;15148;48.972;12.794;2024-03-02T04:03:23;44.33;;;29.08;;
27758;SDS011;15148;48.972;12.794;2024-03-02T04:08:26;48.45;;;28.70;;
27758;SDS011;15148;48.972;12.794;2024-03-02T04:13:28;45.00;;;28.02;;
27758;SDS011;15148;48.972;12.794;2024-03-02T04:18:30;51.45;;;31.13;;
27758;SDS011;15148;48.972;12.794;2024-03-02T04:23:33;50.50;;;30.80;;
27758;SDS011;15148;48.972;12.794;2024-03-02T04:28:35;48.40;;;28.60;;
27758;SDS011;15148;48.972;12.794;2024-03-02T04:33:37;45.00;;;27.27;;
27758;SDS011;15148;48.972;12.794;2024-03-02T04:38:39;46.17;;;29.30;;
27758;SDS011;15148;48.972;12.794;2024-03-02T04:43:41;34.85;;;21.98;;
27758;SDS011;15148;48.972;12.794;2024-03-02T04:48:43;53.92;;;32.45;;
27758;SDS011;15148;48.972;12.794;2024-03-02T04:53:46;47.25;;;28.15;;
27758;SDS011;15148;48.972;12.794;2024-03-02T04:58:48;61.40;;;34.63;;
27758;SDS011;15148;48.972;12.794;2024-03-02T05:03:49;64.50;;;37.95;;
27758;SDS011;15148;48.972;12.794;2024-03-02T05:08:52;65.88;;;37.75;;
27758;SDS011;15148;48.972;12.794;2024-03-02T05:13:54;69.57;;;36.47;;
27758;SDS011;15148;48.972;12.794;2024-03-02T05:18:56;59.55;;;35.70;;
27758;SDS011;15148;48.972;12.794;2024-03-02T05:23:58;66.78;;;37.63;;
27758;SDS011;15148;48.972;12.794;2024-03-02T05:29:01;66.07;;;38.80;;
27758;SDS011;15148;48.972;12.794;2024-03-02T05:34:04;75.15;;;44.05;;
27758;SDS011;15148;48.972;12.794;2024-03-02T05:39:07;76.70;;;46.53;;
27758;SDS011;15148;48.972;12.794;2024-03-02T05:44:10;61.20;;;38.13;;
27758;SDS011;15148;48.972;12.794;2024-03-02T05:49:13;58.80;;;36.35;;
27758;SDS011;15148;48.972;12.794;2024-03-02T05:54:15;60.90;;;36.42;;
27758;SDS011;15148;48.972;12.794;2024-03-02T05:59:17;54.17;;;33.22;;
27758;SDS011;15148;48.972;12.794;2024-03-02T06:04:19;64.00;;;36.70;;
27758;SDS011;15148;48.972;12.794;2024-03-02T06:09:22;59.58;;;34.67;;
27758;SDS011;15148;48.972;12.794;2024-03-02T06:14:26;67.38;;;37.08;;
27758;SDS011;15148;48.972;12.794;2024-03-02T06:19:28;68.50;;;39.22;;
27758;SDS011;15148;48.972;12.794;2024-03-02T06:24:30;51.97;;;32.38;;
27758;SDS011;15148;48.972;12.794;2024-03-02T06:29:32;66.18;;;35.90;;
27758;SDS011;15148;48.972;12.794;2024-03-02T06:34:35;45.17;;;29.17;;
27758;SDS011;15148;48.972;12.794;2024-03-02T06:39:37;48.67;;;28.85;;
27758;SDS011;15148;48.972;12.794;2024-03-02T06:44:39;48.92;;;29.33;;
27758;SDS011;15148;48.972;12.794;2024-03-02T06:49:41;67.68;;;35.88;;
27758;SDS011;15148;48.972;12.794;2024-03-02T06:54:43;50.95;;;29.38;;
27758;SDS011;15148;48.972;12.794;2024-03-02T06:59:45;58.67;;;34.03;;
27758;SDS011;15148;48.972;12.794;2024-03-02T07:04:46;54.08;;;31.83;;
27758;SDS011;15148;48.972;12.794;2024-03-02T07:09:48;54.42;;;32.47;;
27758;SDS011;15148;48.972;12.794;2024-03-02T07:14:50;58.92;;;34.80;;
27758;SDS011;15148;48.972;12.794;2024-03-02T07:20:04;60.83;;;36.47;;
27758;SDS011;15148;48.972;12.794;2024-03-02T07:25:08;65.88;;;36.78;;
27758;SDS011;15148;48.972;12.794;2024-03-02T07:30:29;66.25;;;36.60;;
27758;SDS011;15148;48.972;12.794;2024-03-02T07:35:34;71.78;;;40.85;;
27758;SDS011;15148;48.972;12.794;2024-03-02T07:40:36;73.07;;;41.13;;
27758;SDS011;15148;48.972;12.794;2024-03-02T07:45:38;80.40;;;42.83;;
27758;SDS011;15148;48.972;12.794;2024-03-02T07:50:40;76.22;;;43.03;;
27758;SDS011;15148;48.972;12.794;2024-03-02T07:55:42;81.18;;;48.00;;
27758;SDS011;15148;48.972;12.794;2024-03-02T08:00:45;74.82;;;42.55;;
27758;SDS011;15148;48.972;12.794;2024-03-02T08:05:47;74.03;;;41.58;;
27758;SDS011;15148;48.972;12.794;2024-03-02T08:10:49;67.70;;;38.70;;
27758;SDS011;15148;48.972;12.794;2024-03-02T08:15:51;63.85;;;40.35;;
27758;SDS011;15148;48.972;12.794;2024-03-02T08:20:53;64.40;;;39.10;;
27758;SDS011;15148;48.972;12.794;2024-03-02T08:25:55;55.65;;;35.63;;
27758;SDS011;15148;48.972;12.794;2024-03-02T08:30:57;67.18;;;39.33;;
27758;SDS011;15148;48.972;12.794;2024-03-02T08:36:00;65.47;;;39.22;;
27758;SDS011;15148;48.972;12.794;2024-03-02T08:41:02;56.72;;;34.83;;
27758;SDS011;15148;48.972;12.794;2024-03-02T08:46:05;62.10;;;37.95;;
27758;SDS011;15148;48.972;12.794;2024-03-02T08:51:07;66.70;;;36.72;;
27758;SDS011;15148;48.972;12.794;2024-03-02T08:56:11;58.45;;;37.20;;
27758;SDS011;15148;48.972;12.794;2024-03-02T09:01:14;62.22;;;37.33;;
27758;SDS011;15148;48.972;12.794;2024-03-02T09:06:16;59.85;;;35.85;;
27758;SDS011;15148;48.972;12.794;2024-03-02T09:11:19;58.58;;;34.10;;
27758;SDS011;15148;48.972;12.794;2024-03-02T09:16:21;58.53;;;34.90;;
27758;SDS011;15148;48.972;12.794;2024-03-02T09:21:23;59.20;;;35.40;;
27758;SDS011;15148;48.972;12.794;2024-03-02T09:26:26;53.38;;;33.13;;
27758;SDS011;15148;48.972;12.794;2024-03-02T09:31:28;53.17;;;31.40;;
27758;SDS011;15148;48.972;12.794;2024-03-02T09:36:30;51.22;;;31.95;;
27758;SDS011;15148;48.972;12.794;2024-03-02T09:41:33;51.53;;;32.65;;
27758;SDS011;15148;48.972;12.794;2024-03-02T09:46:35;52.72;;;32.83;;
27758;SDS011;15148;48.972;12.794;2024-03-02T09:51:37;51.20;;;31.42;;
27758;SDS011;15148;48.972;12.794;2024-03-02T09:56:41;41.42;;;27.25;;
27758;SDS011;15148;48.972;12.794;2024-03-02T10:01:59;43.63;;;28.50;;
27758;SDS011;15148;48.972;12.794;2024-03-02T10:07:15;43.00;;;28.02;;
27758;SDS011;15148;48.972;12.794;2024-03-02T10:12:18;39.35;;;27.25;;
27758;SDS011;15148;48.972;12.794;2024-03-02T10:17:20;43.38;;;27.13;;
27758;SDS011;15148;48.972;12.794;2024-03-02T10:22:23;41.92;;;28.40;;
27758;SDS011;15148;48.972;12.794;2024-03-02T10:27:26;37.55;;;26.08;;
27758;SDS011;15148;48.972;12.794;2024-03-02T10:32:29;40.05;;;27.02;;
27758;SDS011;15148;48.972;12.794;2024-03-02T10:37:32;43.97;;;28.23;;
27758;SDS011;15148;48.972;12.794;2024-03-02T10:42:34;38.33;;;27.15;;
27758;SDS011;15148;48.972;12.794;2024-03-02T10:47:38;34.95;;;24.30;;
27758;SDS011;15148;48.972;12.794;2024-03-02T10:52:40;34.30;;;24.45;;
27758;SDS011;15148;48.972;12.794;2024-03-02T10:57:45;40.05;;;26.52;;
27758;SDS011;15148;48.972;12.794;2024-03-02T11:02:56;32.38;;;22.73;;
27758;SDS011;15148;48.972;12.794;2024-03-02T11:08:06;35.25;;;23.77;;
27758;SDS011;15148;48.972;12.794;2024-03-02T11:13:09;34.05;;;23.55;;
27758;SDS011;15148;48.972;12.794;2024-03-02T11:18:12;28.20;;;20.45;;
27758;SDS011;15148;48.972;12.794;2024-03-02T11:23:15;31.77;;;22.23;;
27758;SDS011;15148;48.972;12.794;2024-03-02T11:28:17;30.17;;;21.98;;
27758;SDS011;15148;48.972;12.794;2024-03-02T11:33:38;29.02;;;20.67;;
27758;SDS011;15148;48.972;12.794;2024-03-02T11:38:40;31.08;;;20.98;;
27758;SDS011;15148;48.972;12.794;2024-03-02T11:43:47;25.85;;;18.35;;
27758;SDS011;15148;48.972;12.794;2024-03-02T11:48:50;26.83;;;19.23;;
27758;SDS011;15148;48.972;12.794;2024-03-02T11:53:52;25.15;;;19.23;;
27758;SDS011;15148;48.972;12.794;2024-03-02T11:58:57;29.20;;;20.02;;
27758;SDS011;15148;48.972;12.794;2024-03-02T12:03:59;26.40;;;19.50;;
27758;SDS011;15148;48.972;12.794;2024-03-02T12:09:01;24.13;;;18.20;;
27758;SDS011;15148;48.972;12.794;2024-03-02T12:14:04;24.42;;;18.27;;
27758;SDS011;15148;48.972;12.794;2024-03-02T12:19:11;26.02;;;18.92;;
27758;SDS011;15148;48.972;12.794;2024-03-02T12:24:13;25.25;;;18.20;;
27758;SDS011;15148;48.972;12.794;2024-03-02T12:29:15;24.98;;;17.88;;
27758;SDS011;15148;48.972;12.794;2024-03-02T12:34:18;23.63;;;18.83;;
27758;SDS011;15148;48.972;12.794;2024-03-02T12:39:21;22.60;;;16.48;;
27758;SDS011;15148;48.972;12.794;2024-03-02T12:44:26;26.52;;;19.13;;
27758;SDS011;15148;48.972;12.794;2024-03-02T12:49:28;23.02;;;17.25;;
27758;SDS011;15148;48.972;12.794;2024-03-02T12:54:32;25.48;;;17.70;;
27758;SDS011;15148;48.972;12.794;2024-03-02T12:59:34;22.80;;;16.42;;
27758;SDS011;15148;48.972;12.794;2024-03-02T13:04:38;23.33;;;17.77;;
27758;SDS011;15148;48.972;12.794;2024-03-02T13:09:42;20.83;;;15.52;;
27758;SDS011;15148;48.972;12.794;2024-03-02T13:14:47;22.20;;;16.98;;
27758;SDS011;15148;48.972;12.794;2024-03-02T13:19:57;24.77;;;17.23;;
27758;SDS011;15148;48.972;12.794;2024-03-02T13:25:02;22.00;;;17.13;;
27758;SDS011;15148;48.972;12.794;2024-03-02T13:30:08;20.50;;;15.32;;
27758;SDS011;15148;48.972;12.794;2024-03-02T13:35:11;20.17;;;15.43;;
27758;SDS011;15148;48.972;12.794;2024-03-02T13:40:13;19.10;;;14.85;;
27758;SDS011;15148;48.972;12.794;2024-03-02T13:45:19;19.25;;;14.98;;
27758;SDS011;15148;48.972;12.794;2024-03-02T13:50:21;21.65;;;15.25;;
27758;SDS011;15148;48.972;12.794;2024-03-02T13:55:23;21.35;;;15.85;;
27758;SDS011;15148;48.972;12.794;2024-03-02T14:00:25;19.70;;;14.15;;
27758;SDS011;15148;48.972;12.794;2024-03-02T14:05:27;22.17;;;15.68;;
27758;SDS011;15148;48.972;12.794;2024-03-02T14:10:29;16.83;;;12.98;;
27758;SDS011;15148;48.972;12.794;2024-03-02T14:15:31;14.13;;;12.18;;
27758;SDS011;15148;48.972;12.794;2024-03-02T14:20:33;14.90;;;11.05;;
27758;SDS011;15148;48.972;12.794;2024-03-02T14:25:35;19.75;;;13.82;;
27758;SDS011;15148;48.972;12.794;2024-03-02T14:30:38;19.02;;;14.25;;
27758;SDS011;15148;48.972;12.794;2024-03-02T14:35:40;17.52;;;13.73;;
27758;SDS011;15148;48.972;12.794;2024-03-02T14:40:42;19.40;;;13.18;;
27758;SDS011;15148;48.972;12.794;2024-03-02T14:45:44;15.55;;;12.95;;
27758;SDS011;15148;48.972;12.794;2024-03-02T14:50:46;16.15;;;12.20;;
27758;SDS011;15148;48.972;12.794;2024-03-02T14:55:48;14.43;;;11.57;;
27758;SDS011;15148;48.972;12.794;2024-03-02T15:00:51;14.73;;;12.95;;
27758;SDS011;15148;48.972;12.794;2024-03-02T15:05:54;14.68;;;12.07;;
27758;SDS011;15148;48.972;12.794;2024-03-02T15:10:57;14.80;;;12.60;;
27758;SDS011;15148;48.972;12.794;2024-03-02T15:16:01;12.52;;;9.95;;
27758;SDS011;15148;48.972;12.794;2024-03-02T15:21:03;12.45;;;10.07;;
27758;SDS011;15148;48.972;12.794;2024-03-02T15:26:06;12.82;;;9.77;;
27758;SDS011;15148;48.972;12.794;2024-03-02T15:31:10;12.63;;;10.15;;
27758;SDS011;15148;48.972;12.794;2024-03-02T15:36:12;12.05;;;9.52;;
27758;SDS011;15148;48.972;12.794;2024-03-02T15:41:14;10.98;;;8.85;;
27758;SDS011;15148;48.972;12.794;2024-03-02T15:46:16;12.43;;;8.55;;
27758;SDS011;15148;48.972;12.794;2024-03-02T15:51:18;15.45;;;11.45;;
27758;SDS011;15148;48.972;12.794;2024-03-02T15:56:22;13.02;;;9.35;;
27758;SDS011;15148;48.972;12.794;2024-03-02T16:01:24;18.77;;;11.40;;
27758;SDS011;15148;48.972;12.794;2024-03-02T16:06:30;15.38;;;10.27;;
27758;SDS011;15148;48.972;12.794;2024-03-02T16:11:32;16.65;;;12.40;;
27758;SDS011;15148;48.972;12.794;2024-03-02T16:16:37;17.70;;;12.02;;
27758;SDS011;15148;48.972;12.794;2024-03-02T16:21:39;21.63;;;14.57;;
27758;SDS011;15148;48.972;12.794;2024-03-02T16:26:41;38.53;;;21.38;;
27758;SDS011;15148;48.972;12.794;2024-03-02T16:31:43;35.75;;;19.92;;
27758;SDS011;15148;48.972;12.794;2024-03-02T16:36:45;69.28;;;38.45;;
27758;SDS011;15148;48.972;12.794;2024-03-02T16:41:47;73.13;;;35.33;;
27758;SDS011;15148;48.972;12.794;2024-03-02T16:46:49;29.00;;;17.40;;
27758;SDS011;15148;48.972;12.794;2024-03-02T16:51:51;41.90;;;20.55;;
27758;SDS011;15148;48.972;12.794;2024-03-02T16:56:53;31.85;;;18.45;;
27758;SDS011;15148;48.972;12.794;2024-03-02T17:01:55;31.25;;;15.65;;
27758;SDS011;15148;48.972;12.794;2024-03-02T17:06:57;27.15;;;14.35;;
27758;SDS011;15148;48.972;12.794;2024-03-02T17:11:59;31.77;;;16.38;;
27758;SDS011;15148;48.972;12.794;2024-03-02T17:17:01;24.80;;;15.55;;
27758;SDS011;15148;48.972;12.794;2024-03-02T17:22:03;17.02;;;11.98;;
27758;SDS011;15148;48.972;12.794;2024-03-02T17:27:05;13.65;;;12.02;;
27758;SDS011;15148;48.972;12.794;2024-03-02T17:32:07;13.68;;;9.38;;
27758;SDS011;15148;48.972;12.794;2024-03-02T17:37:09;13.52;;;9.20;;
27758;SDS011;15148;48.972;12.794;2024-03-02T17:42:12;11.80;;;8.80;;
27758;SDS011;15148;48.972;12.794;2024-03-02T17:47:14;18.17;;;11.50;;
27758;SDS011;15148;48.972;12.794;2024-03-02T17:52:16;15.82;;;10.75;;
27758;SDS011;15148;48.972;12.794;2024-03-02T17:57:18;14.15;;;9.13;;
27758;SDS011;15148;48.972;12.794;2024-03-02T18:02:20;14.00;;;11.30;;
27758;SDS011;15148;48.972;12.794;2024-03-02T18:07:22;15.57;;;11.65;;
27758;SDS011;15148;48.972;12.794;2024-03-02T18:12:24;15.73;;;9.93;;
27758;SDS011;15148;48.972;12.794;2024-03-02T18:17:26;24.55;;;16.73;;
27758;SDS011;15148;48.972;12.794;2024-03-02T18:22:28;15.70;;;11.88;;
27758;SDS011;15148;48.972;12.794;2024-03-02T18:27:30;21.80;;;15.35;;
27758;SDS011;15148;48.972;12.794;2024-03-02T18:32:37;20.92;;;15.82;;
27758;SDS011;15148;48.972;12.794;2024-03-02T18:37:39;14.65;;;10.02;;
27758;SDS011;15148;48.972;12.794;2024-03-02T18:42:44;16.83;;;11.95;;
27758;SDS011;15148;48.972;12.794;2024-03-02T18:47:46;20.30;;;14.38;;
27758;SDS011;15148;48.972;12.794;2024-03-02T18:52:48;32.60;;;25.25;;
27758;SDS011;15148;48.972;12.794;2024-03-02T18:57:50;16.88;;;13.20;;
27758;SDS011;15148;48.972;12.794;2024-03-02T19:02:52;14.63;;;11.52;;
27758;SDS011;15148;48.972;12.794;2024-03-02T19:07:54;17.02;;;14.15;;
27758;SDS011;15148;48.972;12.794;2024-03-02T19:12:56;47.88;;;36.30;;
27758;SDS011;15148;48.972;12.794;2024-03-02T19:17:58;52.13;;;29.48;;
27758;SDS011;15148;48.972;12.794;2024-03-02T19:23:00;38.60;;;19.55;;
27758;SDS011;15148;48.972;12.794;2024-03-02T19:28:02;76.68;;;40.30;;
27758;SDS011;15148;48.972;12.794;2024-03-02T19:33:06;34.03;;;21.60;;
27758;SDS011;15148;48.972;12.794;2024-03-02T19:38:09;29.30;;;19.30;;
27758;SDS011;15148;48.972;12.794;2024-03-02T19:43:11;24.67;;;15.80;;
27758;SDS011;15148;48.972;12.794;2024-03-02T19:48:16;18.73;;;12.70;;
27758;SDS011;15148;48.972;12.794;2024-03-02T19:53:18;17.10;;;12.25;;
27758;SDS011;15148;48.972;12.794;2024-03-02T19:58:21;16.52;;;11.48;;
27758;SDS011;15148;48.972;12.794;2024-03-02T20:03:23;14.05;;;11.88;;
27758;SDS011;15148;48.972;12.794;2024-03-02T20:08:27;19.45;;;13.93;;
27758;SDS011;15148;48.972;12.794;2024-03-02T20:13:30;16.20;;;11.57;;
27758;SDS011;15148;48.972;12.794;2024-03-02T20:18:32;17.13;;;12.77;;
27758;SDS011;15148;48.972;12.794;2024-03-02T20:23:34;16.55;;;12.63;;
27758;SDS011;15148;48.972;12.794;2024-03-02T20:28:36;15.40;;;11.88;;
27758;SDS011;15148;48.972;12.794;2024-03-02T20:33:38;14.57;;;10.88;;
27758;SDS011;15148;48.972;12.794;2024-03-02T20:38:40;16.10;;;11.20;;
27758;SDS011;15148;48.972;12.794;2024-03-02T20:43:43;14.73;;;10.85;;
27758;SDS011;15148;48.972;12.794;2024-03-02T20:48:45;12.75;;;9.88;;
27758;SDS011;15148;48.972;12.794;2024-03-02T20:53:48;11.15;;;8.45;;
27758;SDS011;15148;48.972;12.794;2024-03-02T20:58:50;13.52;;;9.70;;
27758;SDS011;15148;48.972;12.794;2024-03-02T21:03:53;13.02;;;9.30;;
27758;SDS011;15148;48.972;12.794;2024-03-02T21:08:55;10.55;;;8.02;;
27758;SDS011;15148;48.972;12.794;2024-03-02T21:13:57;9.82;;;8.38;;
27758;SDS011;15148;48.972;12.794;2024-03-02T21:19:00;13.13;;;11.82;;
27758;SDS011;15148;48.972;12.794;2024-03-02T21:24:02;8.90;;;7.18;;
27758;SDS011;15148;48.972;12.794;2024-03-02T21:29:05;8.63;;;6.43;;
27758;SDS011;15148;48.972;12.794;2024-03-02T21:34:07;10.13;;;6.65;;
27758;SDS011;15148;48.972;12.794;2024-03-02T21:39:09;7.22;;;5.90;;
27758;SDS011;15148;48.972;12.794;2024-03-02T21:44:11;7.30;;;6.45;;
27758;SDS011;15148;48.972;12.794;2024-03-02T21:49:13;11.02;;;5.88;;
27758;SDS011;15148;48.972;12.794;2024-03-02T21:54:16;6.93;;;5.25;;
27758;SDS011;15148;48.972;12.794;2024-03-02T21:59:18;8.85;;;5.43;;
27758;SDS011;15148;48.972;12.794;2024-03-02T22:04:20;5.95;;;5.03;;
27758;SDS011;15148;48.972;12.794;2024-03-02T22:09:23;6.20;;;5.45;;
27758;SDS011;15148;48.972;12.794;2024-03-02T22:14:25;6.88;;;5.22;;
27758;SDS011;15148;48.972;12.794;2024-03-02T22:19:26;9.05;;;5.35;;
27758;SDS011;15148;48.972;12.794;2024-03-02T22:24:28;7.82;;;5.47;;
27758;SDS011;15148;48.972;12.794;2024-03-02T22:29:30;6.53;;;5.05;;
27758;SDS011;15148;48.972;12.794;2024-03-02T22:34:32;9.45;;;6.82;;
27758;SDS011;15148;48.972;12.794;2024-03-02T22:39:34;6.70;;;4.60;;
27758;SDS011;15148;48.972;12.794;2024-03-02T22:44:36;7.30;;;5.25;;
27758;SDS011;15148;48.972;12.794;2024-03-02T22:49:38;5.90;;;5.15;;
27758;SDS011;15148;48.972;12.794;2024-03-02T22:54:40;7.00;;;4.35;;
27758;SDS011;15148;48.972;12.794;2024-03-02T22:59:49;10.35;;;7.20;;
27758;SDS011;15148;48.972;12.794;2024-03-02T23:04:51;16.15;;;9.40;;
27758;SDS011;15148;48.972;12.794;2024-03-02T23:09:53;17.50;;;12.10;;
27758;SDS011;15148;48.972;12.794;2024-03-02T23:14:55;11.55;;;8.30;;
27758;SDS011;15148;48.972;12.794;2024-03-02T23:19:58;12.75;;;8.52;;
27758;SDS011;15148;48.972;12.794;2024-03-02T23:25:01;19.23;;;10.43;;
27758;SDS011;15148;48.972;12.794;2024-03-02T23:30:04;13.02;;;8.40;;
27758;SDS011;15148;48.972;12.794;2024-03-02T23:35:07;10.98;;;7.00;;
27758;SDS011;15148;48.972;12.794;2024-03-02T23:40:09;15.98;;;9.30;;
27758;SDS011;15148;48.972;12.794;2024-03-02T23:45:31;16.42;;;8.85;;
27758;SDS011;15148;48.972;12.794;2024-03-02T23:50:33;8.57;;;5.68;;
27758;SDS011;15148;48.972;12.794;2024-03-02T23:55:35;11.52;;;8.40;;
